Time;durP1;ratioP1;P1;durP2;ratioP2;P2;SDS_P1;SDS_P2;PMS_P1;PMS_P2;Temp;Humidity;BMP_temperature;BMP_pressure;BME280_temperature;BME280_humidity;BME280_pressure;Samples;Min_cycle;Max_cycle;Signal;HPM_P1;HPM_P2
2022/07/29 00:00:59;;;;;;;2.45;1.50;;;19.80;57.50;;;;;;4796556;29;20037;-77
2022/07/29 00:03:25;;;;;;;2.20;1.60;;;19.80;57.60;;;;;;4811097;29;20050;-77
2022/07/29 00:05:54;;;;;;;2.58;1.60;;;19.70;57.50;;;;;;4812856;29;20497;-77
2022/07/29 00:08:20;;;;;;;1.58;1.45;;;19.70;57.70;;;;;;4811637;29;20061;-77
2022/07/29 00:10:46;;;;;;;2.20;1.80;;;19.60;57.60;;;;;;4812162;29;20046;-77
2022/07/29 00:13:11;;;;;;;4.88;1.67;;;19.50;57.50;;;;;;4795532;29;20149;-77
2022/07/29 00:15:37;;;;;;;1.98;1.67;;;19.50;57.60;;;;;;4813072;29;20050;-77
2022/07/29 00:18:03;;;;;;;3.92;2.13;;;19.50;57.60;;;;;;4795145;29;20076;-76
2022/07/29 00:20:29;;;;;;;3.28;1.90;;;19.50;57.70;;;;;;4796663;29;20050;-77
2022/07/29 00:22:56;;;;;;;5.22;2.40;;;19.50;57.80;;;;;;4789805;29;20053;-77
2022/07/29 00:25:22;;;;;;;2.75;1.58;;;19.40;58.30;;;;;;4814764;29;20042;-78
2022/07/29 00:27:48;;;;;;;2.47;1.40;;;19.40;57.80;;;;;;4815073;29;20031;-77
2022/07/29 00:30:14;;;;;;;4.22;2.08;;;19.40;57.90;;;;;;4799693;29;20393;-77
2022/07/29 00:32:40;;;;;;;3.22;1.80;;;19.30;57.80;;;;;;4799038;29;20061;-77
2022/07/29 00:37:52;;;;;;;4.13;2.30;;;19.30;57.90;;;;;;4816547;29;20050;-77
2022/07/29 00:40:18;;;;;;;2.58;2.10;;;19.30;57.90;;;;;;4816477;29;20034;-77
2022/07/29 00:42:48;;;;;;;3.75;2.08;;;19.30;58.00;;;;;;4816462;29;20042;-77
2022/07/29 00:45:15;;;;;;;4.80;2.17;;;19.20;57.90;;;;;;4817287;29;20042;-77
2022/07/29 00:47:41;;;;;;;2.35;1.73;;;19.20;57.90;;;;;;4799233;29;20133;-77
2022/07/29 00:50:10;;;;;;;3.08;1.77;;;19.20;57.90;;;;;;4816930;29;20125;-77
2022/07/29 00:52:38;;;;;;;2.65;1.80;;;19.20;58.00;;;;;;4814849;29;20769;-77
2022/07/29 00:55:06;;;;;;;1.70;1.60;;;19.20;58.00;;;;;;4810641;29;20041;-77
2022/07/29 00:57:33;;;;;;;3.35;1.58;;;19.20;58.10;;;;;;4800424;29;20045;-77
2022/07/29 00:59:59;;;;;;;1.83;1.45;;;19.20;58.10;;;;;;4817431;29;20034;-77
2022/07/29 01:02:25;;;;;;;3.15;1.75;;;19.10;57.90;;;;;;4818280;29;20038;-78
2022/07/29 01:04:51;;;;;;;2.30;1.60;;;19.10;58.00;;;;;;4821556;29;20098;-77
2022/07/29 01:07:18;;;;;;;3.05;2.08;;;19.10;58.00;;;;;;4820388;29;20044;-77
2022/07/29 01:09:45;;;;;;;2.05;1.67;;;19.10;58.10;;;;;;4817425;29;20108;-77
2022/07/29 01:12:21;;;;;;;2.83;1.77;;;19.10;58.10;;;;;;4814740;29;20040;-78
2022/07/29 01:14:48;;;;;;;2.95;1.60;;;19.10;58.20;;;;;;4816048;29;20037;-77
2022/07/29 01:17:32;;;;;;;2.10;1.65;;;19.00;58.00;;;;;;4813994;29;20133;-77
2022/07/29 01:20:03;;;;;;;3.92;1.60;;;19.00;58.10;;;;;;4799330;29;20060;-77
2022/07/29 01:22:44;;;;;;;2.22;2.05;;;19.00;58.10;;;;;;4815427;29;20512;-77
2022/07/29 01:25:32;;;;;;;1.73;1.35;;;19.00;58.10;;;;;;4808098;29;20049;-77
2022/07/29 01:28:09;;;;;;;3.85;1.98;;;19.00;58.30;;;;;;4814570;29;20030;-77
2022/07/29 01:30:38;;;;;;;2.05;1.85;;;18.90;58.10;;;;;;4813107;29;20393;-76
2022/07/29 01:33:09;;;;;;;2.88;1.85;;;18.90;58.00;;;;;;4815358;29;20111;-77
2022/07/29 01:35:39;;;;;;;1.80;1.70;;;19.00;58.30;;;;;;4815664;29;20065;-76
2022/07/29 01:38:10;;;;;;;2.42;1.70;;;18.90;58.20;;;;;;4796625;29;20054;-76
2022/07/29 01:40:53;;;;;;;3.97;2.35;;;18.90;58.20;;;;;;4797114;29;20027;-77
2022/07/29 01:43:46;;;;;;;;;;;18.90;58.30;;;;;;4797793;29;20096;-77
2022/07/29 01:46:17;;;;;;;2.03;1.50;;;18.80;58.00;;;;;;4797041;29;19928;-77
2022/07/29 01:48:47;;;;;;;2.80;1.80;;;18.80;57.90;;;;;;4799082;29;20035;-75
2022/07/29 01:51:20;;;;;;;2.95;1.52;;;18.80;58.00;;;;;;4811323;29;20035;-76
2022/07/29 01:54:14;;;;;;;2.30;1.77;;;18.80;58.20;;;;;;4799393;29;20046;-76
2022/07/29 01:56:41;;;;;;;;;;;18.80;58.30;;;;;;4792049;29;20056;-75
2022/07/29 01:59:09;;;;;;;2.47;1.98;;;18.70;57.90;;;;;;4810988;29;19920;-76
2022/07/29 02:01:37;;;;;;;2.47;1.85;;;18.70;57.90;;;;;;4810543;29;21222;-76
2022/07/29 02:04:06;;;;;;;2.67;1.85;;;18.70;58.00;;;;;;4797273;29;20043;-75
2022/07/29 02:06:34;;;;;;;2.67;1.88;;;18.70;58.10;;;;;;4793768;29;20038;-76
2022/07/29 02:09:02;;;;;;;1.70;1.48;;;18.70;58.30;;;;;;4795562;29;20037;-76
2022/07/29 02:11:31;;;;;;;2.10;1.83;;;18.60;58.10;;;;;;4797255;29;20027;-76
2022/07/29 02:13:59;;;;;;;2.20;1.80;;;18.60;58.20;;;;;;4797384;29;20031;-76
2022/07/29 02:16:28;;;;;;;2.63;1.88;;;18.60;58.30;;;;;;4797830;29;20122;-76
2022/07/29 02:18:57;;;;;;;3.42;1.88;;;18.50;58.20;;;;;;4795621;29;20039;-75
2022/07/29 02:21:25;;;;;;;2.63;1.65;;;18.50;58.30;;;;;;4797583;29;20043;-76
2022/07/29 02:23:53;;;;;;;2.53;2.33;;;18.40;58.20;;;;;;4796618;29;20383;-75
2022/07/29 02:26:24;;;;;;;4.65;2.50;;;18.40;58.20;;;;;;4797341;29;20026;-76
2022/07/29 02:28:56;;;;;;;1.80;1.70;;;18.40;58.40;;;;;;4790207;29;20601;-75
2022/07/29 02:31:26;;;;;;;3.53;2.43;;;18.40;59.00;;;;;;4797652;29;20134;-76
2022/07/29 02:33:53;;;;;;;4.65;1.92;;;18.30;58.30;;;;;;4798764;29;20083;-76
2022/07/29 02:36:23;;;;;;;1.80;1.70;;;18.30;58.40;;;;;;4798326;29;20049;-75
2022/07/29 02:38:51;;;;;;;3.15;1.92;;;18.20;58.40;;;;;;4799126;29;20057;-77
2022/07/29 02:41:26;;;;;;;3.03;1.58;;;18.20;58.40;;;;;;4815403;29;20031;-77
2022/07/29 02:43:56;;;;;;;1.73;1.63;;;18.20;58.50;;;;;;4813223;29;20030;-77
2022/07/29 02:46:35;;;;;;;1.77;1.30;;;18.10;58.40;;;;;;4799331;29;20026;-78
2022/07/29 02:49:01;;;;;;;2.70;1.60;;;18.10;58.50;;;;;;4811843;29;20038;-78
2022/07/29 02:51:42;;;;;;;1.88;1.63;;;18.10;58.50;;;;;;4814739;29;20022;-78
2022/07/29 02:54:10;;;;;;;3.08;2.30;;;18.00;58.50;;;;;;4815703;29;20445;-78
2022/07/29 02:56:39;;;;;;;2.58;1.95;;;18.00;58.50;;;;;;4815660;29;20588;-77
2022/07/29 02:59:09;;;;;;;2.75;2.22;;;18.00;58.50;;;;;;4806719;29;20030;-78
2022/07/29 03:01:42;;;;;;;2.47;1.95;;;17.90;58.40;;;;;;4814947;29;20041;-78
2022/07/29 03:04:11;;;;;;;3.70;1.88;;;17.90;58.50;;;;;;4815465;29;20057;-79
2022/07/29 03:06:38;;;;;;;5.45;1.90;;;17.90;58.50;;;;;;4798058;29;20083;-77
2022/07/29 03:09:06;;;;;;;3.42;1.67;;;17.90;58.60;;;;;;4815029;29;20180;-78
2022/07/29 03:11:34;;;;;;;3.15;2.00;;;17.80;58.50;;;;;;4798291;29;20027;-78
2022/07/29 03:14:00;;;;;;;3.15;2.00;;;17.80;58.50;;;;;;4815029;29;20031;-77
2022/07/29 03:16:27;;;;;;;2.13;1.90;;;17.80;58.60;;;;;;4816001;29;20042;-77
2022/07/29 03:18:53;;;;;;;2.70;2.13;;;17.80;58.70;;;;;;4814239;29;20091;-77
2022/07/29 03:21:19;;;;;;;2.25;1.90;;;17.70;58.50;;;;;;4813220;29;20034;-77
2022/07/29 03:23:45;;;;;;;2.10;1.90;;;17.70;58.50;;;;;;4815540;29;20068;-77
2022/07/29 03:26:13;;;;;;;1.70;1.60;;;17.70;58.70;;;;;;4815120;29;20089;-77
2022/07/29 03:28:39;;;;;;;3.28;1.90;;;17.70;58.70;;;;;;4817100;29;20092;-77
2022/07/29 03:31:05;;;;;;;4.25;1.90;;;17.70;58.70;;;;;;4816187;29;20046;-78
2022/07/29 03:33:30;;;;;;;1.85;1.70;;;17.60;58.50;;;;;;4808050;29;20076;-77
2022/07/29 03:35:58;;;;;;;2.25;1.80;;;17.60;58.60;;;;;;4818840;29;20193;-77
2022/07/29 03:38:27;;;;;;;2.30;2.10;;;17.60;58.60;;;;;;4823313;29;20296;-77
2022/07/29 03:41:07;;;;;;;2.25;2.05;;;17.60;58.70;;;;;;4822886;29;20100;-77
2022/07/29 03:43:37;;;;;;;5.88;2.15;;;17.60;58.80;;;;;;4813275;29;20078;-77
2022/07/29 03:46:07;;;;;;;2.65;2.45;;;17.60;58.70;;;;;;4814767;29;20236;-77
2022/07/29 03:48:36;;;;;;;2.58;2.00;;;17.60;58.80;;;;;;4813403;29;20034;-77
2022/07/29 03:51:02;;;;;;;2.63;1.73;;;17.50;58.60;;;;;;4814172;29;20039;-78
2022/07/29 03:53:29;;;;;;;1.85;1.73;;;17.50;58.60;;;;;;4814262;29;20095;-78
2022/07/29 03:55:59;;;;;;;3.08;1.95;;;17.50;58.70;;;;;;4798534;29;20059;-78
2022/07/29 03:58:27;;;;;;;2.75;2.30;;;17.50;58.80;;;;;;4814361;29;20038;-77
2022/07/29 04:00:55;;;;;;;2.60;1.92;;;17.40;58.60;;;;;;4794453;29;20548;-79
2022/07/29 04:03:22;;;;;;;2.63;2.30;;;17.50;58.80;;;;;;4813362;29;20390;-77
2022/07/29 04:06:05;;;;;;;2.30;2.08;;;17.40;58.70;;;;;;4813856;29;20049;-77
2022/07/29 04:08:32;;;;;;;3.55;2.17;;;17.40;58.80;;;;;;4814418;29;20513;-78
2022/07/29 04:10:59;;;;;;;3.15;1.77;;;17.40;58.70;;;;;;4814125;29;20034;-77
2022/07/29 04:13:25;;;;;;;2.38;1.90;;;17.40;58.80;;;;;;4806108;29;20038;-76
2022/07/29 04:15:51;;;;;;;2.67;2.05;;;17.40;58.80;;;;;;4814008;29;20034;-76
2022/07/29 04:18:17;;;;;;;2.55;2.17;;;17.30;58.70;;;;;;4813297;29;20030;-76
2022/07/29 04:20:43;;;;;;;2.42;2.10;;;17.30;58.80;;;;;;4814121;29;20401;-76
2022/07/29 04:23:09;;;;;;;3.90;2.70;;;17.30;58.80;;;;;;4813677;29;20291;-77
2022/07/29 04:25:39;;;;;;;4.03;3.03;;;17.30;58.90;;;;;;4814570;29;20034;-77
2022/07/29 04:28:05;;;;;;;3.08;2.20;;;17.20;58.70;;;;;;4813825;29;20251;-77
2022/07/29 04:30:33;;;;;;;2.88;2.30;;;17.20;58.80;;;;;;4814261;29;20125;-78
2022/07/29 04:33:00;;;;;;;3.15;2.00;;;17.20;58.80;;;;;;4789533;29;20031;-76
2022/07/29 04:35:27;;;;;;;2.88;2.28;;;17.20;58.90;;;;;;4798001;29;20484;-77
2022/07/29 04:37:53;;;;;;;4.28;2.58;;;17.10;58.80;;;;;;4813970;29;20062;-76
2022/07/29 04:40:19;;;;;;;2.97;2.25;;;17.10;58.80;;;;;;4812412;29;20511;-76
2022/07/29 04:42:45;;;;;;;3.20;2.70;;;17.10;59.40;;;;;;4811683;29;20300;-77
2022/07/29 04:45:11;;;;;;;3.55;2.63;;;17.10;58.90;;;;;;4812648;29;20090;-77
2022/07/29 04:47:37;;;;;;;2.95;2.38;;;17.00;58.80;;;;;;4809430;29;20046;-76
2022/07/29 04:50:03;;;;;;;3.13;2.50;;;17.00;58.80;;;;;;4810679;29;20045;-76
2022/07/29 04:52:29;;;;;;;2.97;2.30;;;17.00;58.90;;;;;;4812867;29;20483;-76
2022/07/29 04:54:55;;;;;;;4.75;2.92;;;17.00;58.90;;;;;;4812571;29;20041;-76
2022/07/29 04:57:20;;;;;;;2.63;2.33;;;17.00;59.00;;;;;;4812607;29;20145;-76
2022/07/29 04:59:46;;;;;;;2.45;2.20;;;17.00;59.00;;;;;;4812756;29;20133;-76
2022/07/29 05:02:12;;;;;;;3.75;2.80;;;17.00;59.00;;;;;;4811510;29;20584;-76
2022/07/29 05:04:38;;;;;;;2.95;2.50;;;17.00;59.10;;;;;;4808569;29;20065;-76
2022/07/29 05:07:04;;;;;;;2.85;2.65;;;17.00;59.00;;;;;;4812585;29;20616;-77
2022/07/29 05:09:32;;;;;;;3.10;2.40;;;17.00;59.10;;;;;;4812829;29;20031;-76
2022/07/29 05:11:58;;;;;;;3.47;2.50;;;16.90;58.90;;;;;;4782367;29;20385;-76
2022/07/29 05:14:24;;;;;;;3.47;2.63;;;17.00;59.10;;;;;;4815786;29;20035;-76
2022/07/29 05:16:50;;;;;;;2.67;2.47;;;17.00;59.10;;;;;;4815390;29;20172;-76
2022/07/29 05:19:17;;;;;;;2.67;2.47;;;17.00;59.10;;;;;;4813171;29;20378;-77
2022/07/29 05:21:44;;;;;;;4.47;2.50;;;17.00;59.00;;;;;;4815544;29;20026;-77
2022/07/29 05:24:10;;;;;;;3.92;2.33;;;17.00;59.00;;;;;;4814430;29;21424;-77
2022/07/29 05:26:36;;;;;;;3.65;3.00;;;17.10;59.20;;;;;;4799685;29;20037;-77
2022/07/29 05:29:02;;;;;;;2.95;2.70;;;17.10;59.20;;;;;;4815387;29;20026;-76
2022/07/29 05:31:28;;;;;;;3.13;2.83;;;17.10;59.10;;;;;;4797898;29;20370;-77
2022/07/29 05:33:54;;;;;;;5.30;2.53;;;17.10;59.00;;;;;;4812590;29;20035;-76
2022/07/29 05:36:20;;;;;;;3.65;2.58;;;17.20;59.10;;;;;;4815270;29;20044;-75
2022/07/29 05:38:46;;;;;;;3.17;2.85;;;17.20;59.00;;;;;;4815268;29;20140;-76
2022/07/29 05:41:11;;;;;;;3.63;2.60;;;17.30;59.20;;;;;;4815382;29;20034;-85
2022/07/29 05:43:37;;;;;;;5.45;3.72;;;17.30;59.10;;;;;;4815871;29;20437;-80
2022/07/29 05:46:03;;;;;;;3.20;2.90;;;17.40;59.40;;;;;;4817017;29;20062;-81
2022/07/29 05:48:29;;;;;;;8.23;4.50;;;17.50;60.10;;;;;;4798539;29;20651;-81
2022/07/29 05:50:55;;;;;;;5.45;4.18;;;17.60;60.40;;;;;;4815171;29;20034;-79
2022/07/29 05:53:21;;;;;;;8.27;4.68;;;17.70;60.40;;;;;;4801225;29;20037;-80
2022/07/29 05:55:48;;;;;;;4.43;4.03;;;17.80;60.30;;;;;;4818692;29;20056;-78
2022/07/29 05:58:14;;;;;;;9.05;5.28;;;17.80;60.20;;;;;;4815222;29;20121;-78
2022/07/29 06:00:40;;;;;;;4.72;4.20;;;17.90;60.30;;;;;;4805668;29;20038;-82
2022/07/29 06:03:05;;;;;;;5.35;4.85;;;18.00;60.30;;;;;;4815989;29;20051;-79
2022/07/29 06:05:31;;;;;;;10.60;4.90;;;18.10;60.30;;;;;;4793631;29;20722;-79
2022/07/29 06:07:57;;;;;;;7.47;4.25;;;18.20;60.30;;;;;;4814263;29;20121;-80
2022/07/29 06:10:24;;;;;;;9.35;4.55;;;18.30;60.20;;;;;;4815896;29;20099;-75
2022/07/29 06:12:50;;;;;;;6.88;4.25;;;18.40;60.10;;;;;;4815376;29;20121;-76
2022/07/29 06:15:16;;;;;;;6.72;4.20;;;18.50;59.90;;;;;;4819572;29;20038;-78
2022/07/29 06:17:42;;;;;;;7.15;4.38;;;18.70;59.80;;;;;;4817603;29;20039;-78
2022/07/29 06:20:09;;;;;;;7.50;3.90;;;18.90;59.70;;;;;;4820152;29;20557;-76
2022/07/29 06:22:35;;;;;;;5.57;3.17;;;19.10;59.50;;;;;;4816819;29;20399;-75
2022/07/29 06:25:02;;;;;;;5.05;3.97;;;19.30;59.20;;;;;;4796877;29;20060;-76
2022/07/29 06:27:28;;;;;;;7.47;3.80;;;19.60;59.10;;;;;;4813096;29;20105;-76
2022/07/29 06:29:53;;;;;;;7.18;4.30;;;19.80;58.90;;;;;;4813607;29;20556;-76
2022/07/29 06:32:19;;;;;;;4.47;3.15;;;20.10;58.90;;;;;;4812213;29;20498;-76
2022/07/29 06:34:45;;;;;;;5.22;3.67;;;20.40;58.70;;;;;;4812285;29;20348;-76
2022/07/29 06:37:11;;;;;;;5.47;3.28;;;20.70;58.40;;;;;;4811816;29;20509;-76
2022/07/29 06:39:37;;;;;;;4.57;3.40;;;21.10;58.20;;;;;;4813551;29;20045;-74
2022/07/29 06:42:06;;;;;;;3.63;3.17;;;21.50;58.10;;;;;;4796700;29;20162;-75
2022/07/29 06:44:33;;;;;;;9.10;2.80;;;21.80;57.70;;;;;;4811398;29;20031;-76
2022/07/29 06:47:01;;;;;;;7.65;3.13;;;22.20;57.60;;;;;;4810934;29;20581;-75
2022/07/29 06:49:27;;;;;;;11.55;3.70;;;22.50;57.20;;;;;;4795198;29;20034;-76
2022/07/29 06:51:54;;;;;;;6.80;3.13;;;22.90;57.10;;;;;;4795374;29;20053;-75
2022/07/29 06:54:20;;;;;;;6.35;2.63;;;23.30;57.00;;;;;;4810003;29;20323;-74
2022/07/29 06:56:46;;;;;;;3.58;3.10;;;23.60;56.50;;;;;;4810219;29;20229;-75
2022/07/29 06:59:12;;;;;;;5.70;2.70;;;23.90;56.40;;;;;;4811622;29;20528;-75
2022/07/29 07:01:41;;;;;;;4.60;2.55;;;24.30;56.30;;;;;;4813310;29;20223;-75
2022/07/29 07:04:08;;;;;;;7.75;2.08;;;24.60;56.10;;;;;;4795493;29;20038;-75
2022/07/29 07:06:34;;;;;;;6.97;2.40;;;24.90;55.90;;;;;;4795280;29;20107;-75
2022/07/29 07:09:01;;;;;;;5.20;2.00;;;25.20;55.30;;;;;;4812631;29;20072;-75
2022/07/29 07:11:27;;;;;;;6.30;2.20;;;25.50;54.70;;;;;;4796950;29;20046;-75
2022/07/29 07:13:53;;;;;;;4.93;2.00;;;25.90;54.10;;;;;;4813086;29;20150;-75
2022/07/29 07:16:19;;;;;;;4.05;2.17;;;26.20;53.30;;;;;;4797253;29;20532;-75
2022/07/29 07:18:45;;;;;;;2.35;1.92;;;26.60;52.50;;;;;;4811500;29;20046;-75
2022/07/29 07:21:11;;;;;;;3.35;1.92;;;26.90;51.80;;;;;;4782617;29;20094;-75
2022/07/29 07:23:37;;;;;;;3.45;1.83;;;27.10;51.30;;;;;;4813216;29;20053;-75
2022/07/29 07:26:05;;;;;;;16.85;3.10;;;27.40;50.80;;;;;;4813529;29;20034;-75
2022/07/29 07:28:31;;;;;;;7.82;2.10;;;27.50;50.40;;;;;;4813078;29;20125;-75
2022/07/29 07:30:57;;;;;;;4.55;2.20;;;27.70;50.00;;;;;;4812002;29;20033;-76
2022/07/29 07:33:23;;;;;;;5.90;2.08;;;27.80;49.50;;;;;;4810148;29;20039;-75
2022/07/29 07:35:49;;;;;;;3.42;2.17;;;27.90;49.10;;;;;;4796307;29;20122;-74
2022/07/29 07:38:15;;;;;;;3.83;1.90;;;28.10;48.90;;;;;;4813377;29;20414;-75
2022/07/29 07:40:41;;;;;;;6.40;2.30;;;28.20;48.40;;;;;;4813139;29;20385;-75
2022/07/29 07:43:07;;;;;;;4.72;2.03;;;28.40;47.90;;;;;;4812571;29;20624;-76
2022/07/29 07:45:33;;;;;;;7.15;2.40;;;28.40;47.90;;;;;;4796231;29;20068;-75
2022/07/29 07:47:59;;;;;;;5.15;1.98;;;28.20;48.00;;;;;;4811349;29;20031;-75
2022/07/29 07:50:25;;;;;;;5.57;1.90;;;28.10;48.30;;;;;;4812140;29;20148;-73
2022/07/29 07:52:57;;;;;;;5.47;3.35;;;27.90;48.50;;;;;;4795512;29;20114;-74
2022/07/29 07:55:23;;;;;;;5.15;1.83;;;27.90;48.70;;;;;;4793198;29;20038;-74
2022/07/29 07:57:49;;;;;;;9.43;2.83;;;27.90;48.70;;;;;;4812461;29;20534;-74
2022/07/29 08:00:16;;;;;;;5.07;2.83;;;27.90;48.40;;;;;;4797718;29;20046;-74
2022/07/29 08:02:44;;;;;;;7.82;2.47;;;27.90;48.20;;;;;;4815565;29;20109;-74
2022/07/29 08:05:13;;;;;;;4.07;2.03;;;27.90;48.10;;;;;;4802835;29;20039;-75
2022/07/29 08:07:39;;;;;;;3.92;1.95;;;27.90;48.00;;;;;;4828056;29;20045;-74
2022/07/29 08:10:06;;;;;;;5.93;2.08;;;27.90;47.90;;;;;;4830323;29;20045;-75
2022/07/29 08:12:31;;;;;;;6.93;1.70;;;27.90;47.90;;;;;;4829471;29;20102;-75
2022/07/29 08:14:57;;;;;;;6.63;1.85;;;27.90;47.80;;;;;;4828349;29;20115;-76
2022/07/29 08:17:23;;;;;;;3.63;1.70;;;27.90;47.60;;;;;;4792237;29;20030;-76
2022/07/29 08:19:49;;;;;;;5.57;1.75;;;27.90;47.40;;;;;;4828043;29;20145;-75
2022/07/29 08:22:15;;;;;;;4.60;1.65;;;27.90;47.30;;;;;;4827083;29;20043;-74
2022/07/29 08:24:46;;;;;;;5.78;2.20;;;27.90;47.20;;;;;;4826990;29;20046;-73
2022/07/29 08:27:13;;;;;;;6.47;2.13;;;27.80;47.30;;;;;;4825470;29;20397;-75
2022/07/29 08:29:39;;;;;;;4.70;1.60;;;27.60;47.40;;;;;;4826230;29;20042;-74
2022/07/29 08:32:05;;;;;;;5.93;1.95;;;27.50;47.50;;;;;;4824386;29;20079;-73
2022/07/29 08:34:32;;;;;;;3.60;1.40;;;27.30;47.60;;;;;;4824976;29;20034;-74
2022/07/29 08:36:58;;;;;;;3.38;1.30;;;27.20;47.70;;;;;;4824752;29;20323;-74
2022/07/29 08:39:24;;;;;;;3.35;1.60;;;27.10;47.80;;;;;;4826046;29;20250;-75
2022/07/29 08:41:51;;;;;;;5.47;2.10;;;27.00;47.80;;;;;;4817083;29;20865;-77
2022/07/29 08:44:18;;;;;;;3.70;1.50;;;26.90;47.80;;;;;;4813827;29;20034;-74
2022/07/29 08:46:45;;;;;;;8.77;2.03;;;26.90;47.70;;;;;;4814107;29;20095;-74
2022/07/29 08:49:11;;;;;;;3.47;1.70;;;26.90;47.70;;;;;;4798973;29;20106;-74
2022/07/29 08:51:40;;;;;;;4.93;2.03;;;26.80;47.50;;;;;;4814199;29;20485;-74
2022/07/29 08:54:08;;;;;;;6.47;1.60;;;26.80;47.40;;;;;;4815623;29;20173;-74
2022/07/29 08:56:34;;;;;;;5.25;1.83;;;26.80;47.20;;;;;;4815727;29;20046;-73
2022/07/29 08:59:03;;;;;;;5.47;2.05;;;26.70;47.10;;;;;;4814785;29;20026;-74
2022/07/29 09:01:33;;;;;;;7.82;2.00;;;26.70;47.00;;;;;;4816051;29;20123;-78
2022/07/29 09:04:01;;;;;;;4.78;1.85;;;26.70;46.90;;;;;;4800089;29;20125;-75
2022/07/29 09:06:34;;;;;;;5.10;2.13;;;26.60;46.80;;;;;;4816551;29;20030;-77
2022/07/29 09:09:00;;;;;;;9.23;2.33;;;26.60;46.70;;;;;;4814389;29;20369;-76
2022/07/29 09:11:28;;;;;;;2.33;1.63;;;26.60;46.70;;;;;;4814260;29;20034;-75
2022/07/29 09:13:54;;;;;;;7.15;1.80;;;26.60;46.80;;;;;;4815849;29;20075;-75
2022/07/29 09:16:19;;;;;;;4.15;2.10;;;26.70;46.90;;;;;;4816521;29;20062;-75
2022/07/29 09:18:46;;;;;;;6.00;1.98;;;26.70;46.70;;;;;;4797911;29;20967;-75
2022/07/29 09:24:07;;;;;;;6.53;1.90;;;26.90;46.60;;;;;;4815482;29;20050;-75
2022/07/29 09:26:42;;;;;;;7.43;1.77;;;26.90;46.50;;;;;;4799242;29;20045;-75
2022/07/29 09:29:11;;;;;;;2.28;1.50;;;26.90;46.40;;;;;;4814692;29;20125;-75
2022/07/29 09:31:44;;;;;;;2.35;1.85;;;27.00;46.40;;;;;;4814363;29;20111;-75
2022/07/29 09:34:11;;;;;;;4.50;2.10;;;27.00;46.30;;;;;;4814250;29;20034;-75
2022/07/29 09:36:48;;;;;;;4.95;1.77;;;27.00;46.30;;;;;;4813900;29;20492;-75
2022/07/29 09:39:25;;;;;;;3.78;2.15;;;27.10;46.10;;;;;;4812931;29;20042;-76
2022/07/29 09:41:54;;;;;;;4.28;2.17;;;27.20;46.00;;;;;;4798501;29;20083;-76
2022/07/29 09:44:22;;;;;;;10.82;2.10;;;27.20;45.90;;;;;;4815419;29;20034;-75
2022/07/29 09:47:05;;;;;;;2.60;1.83;;;27.20;45.90;;;;;;4814787;29;20034;-77
2022/07/29 09:49:49;;;;;;;8.38;1.90;;;27.20;45.70;;;;;;4814922;29;20501;-75
2022/07/29 09:52:16;;;;;;;5.70;1.50;;;27.20;45.80;;;;;;4815367;29;20030;-75
2022/07/29 09:54:41;;;;;;;6.93;2.55;;;27.30;45.90;;;;;;4815651;29;20489;-76
2022/07/29 09:57:20;;;;;;;9.20;1.90;;;27.30;45.80;;;;;;4814294;29;20062;-76
2022/07/29 10:00:05;;;;;;;3.72;2.03;;;27.40;45.60;;;;;;4814216;29;20026;-76
2022/07/29 10:02:42;;;;;;;4.20;1.90;;;27.40;45.40;;;;;;4797428;29;20043;-76
2022/07/29 10:05:21;;;;;;;7.00;2.05;;;27.40;45.30;;;;;;4814948;29;20283;-76
2022/07/29 10:07:57;;;;;;;3.58;1.83;;;27.40;45.20;;;;;;4798744;29;20576;-76
2022/07/29 10:10:24;;;;;;;6.05;1.70;;;27.50;45.20;;;;;;4814187;29;20042;-76
2022/07/29 10:12:55;;;;;;;4.63;1.80;;;27.50;45.20;;;;;;4814320;29;20133;-76
2022/07/29 10:15:27;;;;;;;6.43;1.88;;;27.50;45.10;;;;;;4815266;29;20038;-76
2022/07/29 10:17:56;;;;;;;4.90;1.77;;;27.50;44.90;;;;;;4813690;29;20309;-77
2022/07/29 10:20:23;;;;;;;4.00;1.73;;;27.60;45.40;;;;;;4813951;29;20037;-76
2022/07/29 10:22:51;;;;;;;3.42;1.33;;;27.60;44.80;;;;;;4814160;29;20053;-76
2022/07/29 10:25:17;;;;;;;4.07;1.88;;;27.70;44.70;;;;;;4812401;29;20030;-74
2022/07/29 10:27:45;;;;;;;3.40;1.65;;;27.70;44.50;;;;;;4813214;29;20489;-75
2022/07/29 10:30:13;;;;;;;3.50;1.55;;;27.80;44.50;;;;;;4814574;29;20035;-74
2022/07/29 10:33:08;;;;;;;5.45;2.10;;;27.90;44.50;;;;;;4812145;29;20037;-75
2022/07/29 10:35:58;;;;;;;2.08;1.42;;;28.00;44.10;;;;;;4748939;29;20478;-76
2022/07/29 10:38:34;;;;;;;6.32;1.70;;;28.00;43.90;;;;;;4811532;29;20042;-75
2022/07/29 10:41:27;;;;;;;6.30;1.83;;;28.10;44.00;;;;;;4814380;29;20045;-75
2022/07/29 10:44:01;;;;;;;8.75;1.85;;;28.10;44.00;;;;;;4814249;29;20884;-75
2022/07/29 10:46:28;;;;;;;14.25;1.75;;;28.20;44.60;;;;;;4813539;29;20086;-75
2022/07/29 10:49:12;;;;;;;8.10;2.05;;;28.30;43.90;;;;;;4810609;29;20026;-77
2022/07/29 10:51:55;;;;;;;5.38;1.45;;;28.40;43.60;;;;;;4815045;29;20658;-75
2022/07/29 10:54:39;;;;;;;5.13;1.48;;;28.50;43.50;;;;;;4813630;29;20049;-74
2022/07/29 10:57:27;;;;;;;3.15;1.75;;;28.60;43.30;;;;;;4811740;29;20088;-74
2022/07/29 11:00:04;;;;;;;3.65;1.50;;;28.70;43.20;;;;;;4812341;29;20321;-75
2022/07/29 11:02:36;;;;;;;5.70;1.73;;;28.80;43.10;;;;;;4814801;29;20050;-76
2022/07/29 11:05:10;;;;;;;4.32;1.65;;;28.80;42.90;;;;;;4814235;29;20094;-75
2022/07/29 11:07:38;;;;;;;4.10;1.42;;;28.80;42.60;;;;;;4797349;29;20049;-75
2022/07/29 11:10:20;;;;;;;5.47;1.42;;;28.90;42.60;;;;;;4812981;29;20106;-76
2022/07/29 11:12:47;;;;;;;4.85;1.48;;;28.90;42.20;;;;;;4796739;29;20369;-75
2022/07/29 11:15:21;;;;;;;4.43;1.67;;;29.00;42.40;;;;;;4806595;29;20133;-75
2022/07/29 11:18:01;;;;;;;6.40;1.80;;;29.00;42.00;;;;;;4812755;29;20393;-78
2022/07/29 11:20:41;;;;;;;6.47;1.60;;;29.00;41.80;;;;;;4813701;29;20038;-75
2022/07/29 11:23:31;;;;;;;7.07;1.77;;;29.10;41.70;;;;;;4812699;29;20138;-75
2022/07/29 11:26:13;;;;;;;3.97;1.58;;;29.20;41.60;;;;;;4813394;29;20049;-75
2022/07/29 11:29:02;;;;;;;4.45;1.60;;;29.30;41.40;;;;;;4811004;29;20103;-79
2022/07/29 11:31:42;;;;;;;5.50;1.95;;;29.40;41.20;;;;;;4807972;29;20047;-76
2022/07/29 11:34:19;;;;;;;8.32;1.83;;;29.40;41.10;;;;;;4815189;29;20041;-76
2022/07/29 11:37:08;;;;;;;4.88;1.25;;;29.50;41.10;;;;;;4813304;29;20533;-75
2022/07/29 11:39:43;;;;;;;3.60;1.90;;;29.60;40.70;;;;;;4814002;29;20038;-75
2022/07/29 11:42:24;;;;;;;6.30;1.95;;;29.70;40.70;;;;;;4796825;29;20057;-75
2022/07/29 11:44:57;;;;;;;3.00;1.25;;;29.80;40.60;;;;;;4814197;29;20058;-75
2022/07/29 11:47:24;;;;;;;4.47;1.38;;;29.90;40.50;;;;;;4795487;29;20159;-75
2022/07/29 11:49:51;;;;;;;8.55;2.03;;;30.00;40.40;;;;;;4813667;29;20292;-76
2022/07/29 11:52:18;;;;;;;5.93;1.50;;;30.00;40.20;;;;;;4813812;29;20131;-75
2022/07/29 11:54:46;;;;;;;5.40;1.70;;;30.10;40.00;;;;;;4813453;29;20038;-76
2022/07/29 11:57:14;;;;;;;3.63;1.65;;;30.20;39.90;;;;;;4813399;29;20118;-75
2022/07/29 11:59:44;;;;;;;4.50;1.80;;;30.30;39.70;;;;;;4796477;29;20449;-75
2022/07/29 12:02:11;;;;;;;4.13;2.20;;;30.30;39.60;;;;;;4811940;29;20556;-77
2022/07/29 12:04:59;;;;;;;6.43;1.75;;;30.50;39.50;;;;;;4818415;29;20038;-76
2022/07/29 12:07:31;;;;;;;2.65;1.73;;;30.50;38.80;;;;;;4811459;29;20133;-75
2022/07/29 12:09:58;;;;;;;6.63;1.45;;;30.60;39.00;;;;;;4812727;29;20392;-75
2022/07/29 12:12:24;;;;;;;3.38;1.30;;;30.70;38.90;;;;;;4812481;29;20122;-75
2022/07/29 12:14:50;;;;;;;3.30;1.20;;;30.80;38.70;;;;;;4813391;29;20145;-75
2022/07/29 12:17:28;;;;;;;5.50;1.38;;;30.80;38.50;;;;;;4811251;29;20474;-75
2022/07/29 12:19:55;;;;;;;5.50;1.10;;;30.90;38.20;;;;;;4811348;29;20574;-75
2022/07/29 12:22:29;;;;;;;4.38;1.00;;;31.00;38.30;;;;;;4816623;29;20061;-75
2022/07/29 12:24:56;;;;;;;2.67;1.00;;;31.00;38.00;;;;;;4816883;29;20038;-75
2022/07/29 12:27:22;;;;;;;3.38;1.30;;;31.10;38.00;;;;;;4816504;29;20025;-76
2022/07/29 12:29:59;;;;;;;3.33;1.30;;;31.20;37.90;;;;;;4800714;29;20030;-78
2022/07/29 12:32:32;;;;;;;3.85;1.10;;;31.30;37.60;;;;;;4815299;29;20071;-77
2022/07/29 12:34:59;;;;;;;6.93;1.50;;;31.40;37.50;;;;;;4813049;29;20456;-76
2022/07/29 12:37:25;;;;;;;1.67;1.13;;;31.50;37.40;;;;;;4816362;29;20498;-76
2022/07/29 12:39:51;;;;;;;4.72;1.48;;;31.60;37.20;;;;;;4816844;29;20031;-76
2022/07/29 12:42:17;;;;;;;3.95;1.58;;;31.70;37.00;;;;;;4816385;29;20543;-76
2022/07/29 12:44:52;;;;;;;1.73;0.95;;;31.80;36.90;;;;;;4817326;29;20116;-76
2022/07/29 12:47:20;;;;;;;7.93;2.10;;;31.90;36.50;;;;;;4817083;29;20026;-76
2022/07/29 12:49:46;;;;;;;3.50;1.58;;;32.00;36.50;;;;;;4819951;29;20203;-77
2022/07/29 12:52:28;;;;;;;4.18;1.90;;;32.10;36.50;;;;;;4789051;29;20045;-77
2022/07/29 12:54:55;;;;;;;2.08;1.02;;;32.10;36.30;;;;;;4818769;29;20393;-76
2022/07/29 12:57:21;;;;;;;2.95;1.10;;;32.20;36.40;;;;;;4817007;29;20041;-76
2022/07/29 13:00:09;;;;;;;2.97;1.52;;;32.40;36.30;;;;;;4815572;29;20059;-76
2022/07/29 13:02:40;;;;;;;2.05;1.30;;;32.50;35.90;;;;;;4814001;29;20042;-76
2022/07/29 13:05:12;;;;;;;4.88;1.50;;;32.70;36.00;;;;;;4816150;29;20125;-77